createdAt,value
2022-11-16T00:02:13.414Z,19.08
2022-11-16T00:04:40.523Z,17.63
2022-11-16T00:07:07.303Z,20.38
2022-11-16T00:09:34.758Z,20.50
2022-11-16T00:12:05.457Z,16.77
2022-11-16T00:14:34.593Z,17.13
2022-11-16T00:17:01.369Z,17.95
2022-11-16T00:19:28.721Z,18.10
2022-11-16T00:21:55.566Z,17.20
2022-11-16T00:24:23.288Z,17.50
2022-11-16T00:26:50.606Z,16.33
2022-11-16T00:29:22.659Z,23.65
2022-11-16T00:31:50.213Z,22.05
2022-11-16T00:34:18.261Z,15.38
2022-11-16T00:36:45.459Z,15.95
2022-11-16T00:39:13.499Z,17.30
2022-11-16T00:41:40.792Z,18.50
2022-11-16T00:44:07.717Z,23.90
2022-11-16T00:46:34.319Z,17.98
2022-11-16T00:49:00.966Z,14.55
2022-11-16T00:51:27.537Z,21.05
2022-11-16T00:53:54.414Z,19.15
2022-11-16T00:56:21.002Z,24.83
2022-11-16T00:58:47.517Z,19.30
2022-11-16T01:01:14.689Z,24.67
2022-11-16T01:03:41.778Z,16.70
2022-11-16T01:06:10.946Z,19.63
2022-11-16T01:08:39.702Z,16.88
2022-11-16T01:11:25.330Z,19.63
2022-11-16T01:13:52.651Z,20.25
2022-11-16T01:16:21.224Z,15.77
2022-11-16T01:18:52.257Z,19.30
2022-11-16T01:21:19.427Z,20.88
2022-11-16T01:23:46.178Z,16.38
2022-11-16T01:26:12.874Z,21.42
2022-11-16T01:28:39.470Z,14.32
2022-11-16T01:31:06.434Z,17.33
2022-11-16T01:33:32.958Z,16.70
2022-11-16T01:35:59.710Z,18.08
2022-11-16T01:38:29.756Z,16.00
2022-11-16T01:40:56.818Z,20.30
2022-11-16T01:43:24.979Z,18.48
2022-11-16T01:45:51.784Z,13.23
2022-11-16T01:48:26.009Z,16.17
2022-11-16T01:50:56.127Z,20.83
2022-11-16T01:53:23.442Z,20.88
2022-11-16T01:55:50.468Z,18.38
2022-11-16T01:58:24.780Z,19.52
2022-11-16T02:00:51.692Z,18.05
2022-11-16T02:03:20.248Z,16.17
2022-11-16T02:06:11.507Z,23.45
2022-11-16T02:09:30.023Z,15.50
2022-11-16T02:12:28.371Z,18.73
2022-11-16T02:15:16.212Z,14.32
2022-11-16T02:18:09.274Z,15.00
2022-11-16T02:20:45.874Z,22.83
2022-11-16T02:23:49.678Z,17.73
2022-11-16T02:26:58.221Z,17.27
2022-11-16T02:29:48.601Z,18.92
2022-11-16T02:32:39.708Z,14.80
2022-11-16T02:35:19.654Z,13.10
2022-11-16T02:37:52.702Z,17.13
2022-11-16T02:40:22.359Z,15.52
2022-11-16T02:42:54.391Z,22.70
2022-11-16T02:45:25.694Z,20.00
2022-11-16T02:47:55.704Z,16.23
2022-11-16T02:50:23.736Z,29.77
2022-11-16T02:52:50.443Z,16.98
2022-11-16T02:55:17.098Z,22.83
2022-11-16T02:57:58.873Z,21.73
2022-11-16T03:00:35.857Z,22.85
2022-11-16T03:03:28.169Z,19.90
2022-11-16T03:06:05.352Z,20.80
2022-11-16T03:08:36.335Z,15.65
2022-11-16T03:11:27.452Z,15.60
2022-11-16T03:14:05.500Z,18.48
2022-11-16T03:16:37.306Z,16.85
2022-11-16T03:19:10.620Z,18.88
2022-11-16T03:21:38.892Z,21.05
2022-11-16T03:24:06.531Z,19.60
2022-11-16T03:26:48.970Z,14.73
2022-11-16T03:29:24.647Z,19.58
2022-11-16T03:31:57.795Z,17.67
2022-11-16T03:34:29.454Z,19.30
2022-11-16T03:36:57.713Z,23.20
2022-11-16T03:39:30.231Z,17.60
2022-11-16T03:41:59.438Z,13.95
2022-11-16T03:44:27.679Z,13.13
2022-11-16T03:46:54.396Z,18.05
2022-11-16T03:49:22.664Z,12.25
2022-11-16T03:51:51.008Z,21.75
2022-11-16T03:54:17.687Z,17.95
2022-11-16T03:56:45.731Z,20.27
2022-11-16T03:59:12.297Z,24.90
2022-11-16T04:01:44.390Z,24.05
2022-11-16T04:04:31.384Z,21.80
2022-11-16T04:07:16.811Z,18.60
2022-11-16T04:10:09.494Z,14.65
2022-11-16T04:12:54.766Z,13.95
2022-11-16T04:15:40.118Z,19.35
2022-11-16T04:18:29.898Z,15.23
2022-11-16T04:21:15.647Z,15.70
2022-11-16T04:24:01.147Z,20.75
2022-11-16T04:26:56.857Z,18.25
2022-11-16T04:29:24.117Z,13.70
2022-11-16T04:32:09.227Z,12.90
2022-11-16T04:34:54.546Z,21.38
2022-11-16T04:37:39.864Z,24.98
2022-11-16T04:40:07.170Z,23.35
2022-11-16T04:42:33.783Z,16.52
2022-11-16T04:45:19.415Z,20.65
2022-11-16T04:47:49.442Z,18.60
2022-11-16T04:50:16.602Z,26.08
2022-11-16T04:52:43.147Z,19.98
2022-11-16T04:55:10.160Z,23.77
2022-11-16T04:57:36.755Z,18.95
2022-11-16T05:00:05.601Z,17.73
2022-11-16T05:02:32.219Z,18.67
2022-11-16T05:04:58.827Z,15.68
2022-11-16T05:07:25.498Z,15.50
2022-11-16T05:09:52.090Z,15.75
2022-11-16T05:12:24.215Z,14.23
2022-11-16T05:14:50.885Z,20.48
2022-11-16T05:17:18.350Z,21.77
2022-11-16T05:20:03.885Z,13.10
2022-11-16T05:22:32.475Z,23.88
2022-11-16T05:24:59.542Z,16.90
2022-11-16T05:27:27.686Z,19.27
2022-11-16T05:29:54.984Z,16.30
2022-11-16T05:32:23.614Z,15.77
2022-11-16T05:34:51.515Z,17.73
2022-11-16T05:37:21.068Z,15.75
2022-11-16T05:39:48.505Z,19.33
2022-11-16T05:42:15.790Z,17.85
2022-11-16T05:44:42.368Z,16.40
2022-11-16T05:47:08.929Z,15.20
2022-11-16T05:49:35.740Z,15.93
2022-11-16T05:52:02.335Z,22.15
2022-11-16T05:54:29.017Z,16.13
2022-11-16T05:56:55.826Z,11.00
2022-11-16T05:59:23.413Z,10.82
2022-11-16T06:01:50.924Z,16.77
2022-11-16T06:04:23.983Z,13.52
2022-11-16T06:06:50.559Z,18.73
2022-11-16T06:09:17.314Z,17.58
2022-11-16T06:11:44.034Z,17.92
2022-11-16T06:14:10.628Z,15.95
2022-11-16T06:16:37.285Z,16.23
2022-11-16T06:19:03.880Z,16.25
2022-11-16T06:21:30.781Z,17.13
2022-11-16T06:23:57.325Z,12.77
2022-11-16T06:26:23.898Z,12.35
2022-11-16T06:28:50.578Z,11.82
2022-11-16T06:31:17.187Z,14.27
2022-11-16T06:33:43.895Z,15.35
2022-11-16T06:36:10.657Z,17.95
2022-11-16T06:38:37.764Z,13.90
2022-11-16T06:41:04.727Z,13.40
2022-11-16T06:43:31.402Z,17.90
2022-11-16T06:45:58.478Z,18.95
2022-11-16T06:48:25.732Z,9.75
2022-11-16T06:50:52.944Z,21.90
2022-11-16T06:53:23.468Z,14.70
2022-11-16T06:55:52.564Z,15.65
2022-11-16T06:58:19.142Z,14.43
2022-11-16T07:00:45.942Z,15.45
2022-11-16T07:03:12.510Z,19.38
2022-11-16T07:05:41.864Z,24.42
2022-11-16T07:08:09.230Z,16.38
2022-11-16T07:10:38.083Z,24.33
2022-11-16T07:13:04.957Z,14.32
2022-11-16T07:15:32.844Z,13.40
2022-11-16T07:18:09.551Z,17.63
2022-11-16T07:20:37.294Z,16.05
2022-11-16T07:23:04.451Z,18.95
2022-11-16T07:25:33.289Z,20.83
2022-11-16T07:27:59.934Z,17.80
2022-11-16T07:30:26.930Z,10.30
2022-11-16T07:32:58.074Z,9.88
2022-11-16T07:35:24.850Z,17.10
2022-11-16T07:37:51.567Z,13.45
2022-11-16T07:40:18.431Z,18.77
2022-11-16T07:42:45.790Z,16.38
2022-11-16T07:45:12.547Z,14.45
2022-11-16T07:47:39.338Z,16.95
2022-11-16T07:50:08.604Z,11.63
2022-11-16T07:52:35.547Z,14.20
2022-11-16T07:55:02.192Z,23.67
2022-11-16T07:57:29.061Z,19.55
2022-11-16T07:59:55.879Z,13.43
2022-11-16T08:02:22.605Z,20.92
2022-11-16T08:04:50.462Z,18.52
2022-11-16T08:07:17.077Z,20.08
2022-11-16T08:09:43.675Z,15.80
2022-11-16T08:12:10.400Z,16.08
2022-11-16T08:14:36.955Z,16.42
2022-11-16T08:17:04.874Z,19.55
2022-11-16T08:19:32.362Z,18.23
2022-11-16T08:21:58.958Z,14.43
2022-11-16T08:24:25.549Z,16.10
2022-11-16T08:26:52.089Z,19.52
2022-11-16T08:29:18.795Z,16.55
2022-11-16T08:31:45.619Z,20.33
2022-11-16T08:34:12.505Z,14.40
2022-11-16T08:36:39.127Z,18.13
2022-11-16T08:39:05.691Z,14.70
2022-11-16T08:41:32.248Z,23.85
2022-11-16T08:44:00.094Z,20.13
2022-11-16T08:46:28.368Z,12.88
2022-11-16T08:48:56.948Z,12.52
2022-11-16T08:51:24.914Z,15.00
2022-11-16T08:53:56.339Z,11.35
2022-11-16T08:56:23.078Z,18.42
2022-11-16T08:58:58.176Z,18.90
2022-11-16T09:01:28.535Z,14.57
2022-11-16T09:03:56.095Z,16.98
2022-11-16T09:06:24.515Z,11.85
2022-11-16T09:08:51.255Z,19.52
2022-11-16T09:11:20.481Z,17.05
2022-11-16T09:13:48.781Z,18.75
2022-11-16T09:16:16.586Z,17.35
2022-11-16T09:18:46.632Z,14.45
2022-11-16T09:21:17.491Z,14.35
2022-11-16T09:23:44.194Z,16.98
2022-11-16T09:26:10.750Z,21.92
2022-11-16T09:28:37.719Z,16.33
2022-11-16T09:31:05.921Z,14.13
2022-11-16T09:33:34.209Z,17.52
2022-11-16T09:36:06.705Z,20.13
2022-11-16T09:39:13.873Z,21.27
2022-11-16T09:41:58.546Z,16.92
2022-11-16T09:45:04.549Z,14.38
2022-11-16T09:47:48.991Z,17.45
2022-11-16T09:50:19.459Z,11.57
2022-11-16T09:52:50.494Z,16.20
2022-11-16T09:55:24.694Z,16.30
2022-11-16T09:57:55.165Z,19.35
2022-11-16T10:00:23.665Z,21.13
2022-11-16T10:03:13.018Z,17.23
2022-11-16T10:05:56.375Z,21.75
2022-11-16T10:08:37.842Z,20.33
2022-11-16T10:11:35.425Z,19.58
2022-11-16T10:14:21.128Z,15.95
2022-11-16T10:17:09.273Z,14.07
2022-11-16T10:19:53.270Z,17.58
2022-11-16T10:22:48.003Z,17.48
2022-11-16T10:25:18.271Z,16.85
2022-11-16T10:28:24.398Z,19.67
2022-11-16T10:31:14.658Z,15.43
2022-11-16T10:33:43.827Z,17.85
2022-11-16T10:36:17.965Z,22.45
2022-11-16T10:38:45.419Z,22.05
2022-11-16T10:41:30.144Z,24.40
2022-11-16T10:43:59.069Z,16.15
2022-11-16T10:46:33.679Z,22.98
2022-11-16T10:49:22.466Z,22.55
2022-11-16T10:51:49.242Z,21.00
2022-11-16T10:54:17.843Z,19.10
2022-11-16T10:56:48.215Z,16.52
2022-11-16T10:59:19.060Z,26.85
2022-11-16T11:01:48.115Z,21.25
2022-11-16T11:04:19.472Z,18.50
2022-11-16T11:07:10.910Z,14.50
2022-11-16T11:09:41.635Z,17.85
2022-11-16T11:12:35.719Z,22.88
2022-11-16T11:15:11.586Z,28.67
2022-11-16T11:17:40.731Z,21.65
2022-11-16T11:20:17.454Z,22.02
2022-11-16T11:22:57.590Z,18.65
2022-11-16T11:25:56.342Z,17.42
2022-11-16T11:28:23.535Z,11.52
2022-11-16T11:30:53.269Z,18.60
2022-11-16T11:33:23.709Z,25.02
2022-11-16T11:36:24.626Z,19.38
2022-11-16T11:39:28.256Z,23.52
2022-11-16T11:42:05.480Z,21.50
2022-11-16T11:44:50.144Z,20.17
2022-11-16T11:47:57.490Z,23.05
2022-11-16T11:51:01.616Z,15.63
2022-11-16T11:53:45.710Z,23.70
2022-11-16T11:56:13.416Z,15.20
2022-11-16T11:58:41.574Z,24.58
2022-11-16T12:01:39.748Z,17.85
2022-11-16T12:04:34.901Z,21.95
2022-11-16T12:07:25.247Z,17.52
2022-11-16T12:10:18.897Z,21.83
2022-11-16T12:12:54.635Z,16.15
2022-11-16T12:16:02.682Z,16.48
2022-11-16T12:18:43.733Z,22.58
2022-11-16T12:21:42.286Z,25.23
2022-11-16T12:24:24.200Z,16.20
2022-11-16T12:27:27.103Z,22.88
2022-11-16T12:30:01.882Z,27.05
2022-11-16T12:32:43.335Z,20.52
2022-11-16T12:35:28.473Z,23.15
2022-11-16T12:38:07.420Z,21.15
2022-11-16T12:40:37.460Z,18.13
2022-11-16T12:43:19.147Z,27.98
2022-11-16T12:46:17.460Z,28.38
2022-11-16T12:49:16.726Z,23.92
2022-11-16T12:52:19.081Z,19.83
2022-11-16T12:55:28.884Z,21.02
2022-11-16T12:58:06.067Z,27.60
2022-11-16T13:01:03.748Z,22.23
2022-11-16T13:03:46.714Z,14.43
2022-11-16T13:06:33.822Z,22.05
2022-11-16T13:09:23.139Z,25.10
2022-11-16T13:11:54.379Z,20.85
2022-11-16T13:14:37.347Z,18.50
2022-11-16T13:17:07.092Z,25.92
2022-11-16T13:19:39.835Z,28.98
2022-11-16T13:22:22.071Z,23.50
2022-11-16T13:25:16.716Z,16.77
2022-11-16T13:28:23.104Z,24.75
2022-11-16T13:31:02.234Z,20.90
2022-11-16T13:33:31.535Z,25.88
2022-11-16T13:35:58.130Z,23.35
2022-11-16T13:38:53.699Z,25.85
2022-11-16T13:41:47.664Z,25.27
2022-11-16T13:44:24.491Z,22.20
2022-11-16T13:47:06.255Z,16.52
2022-11-16T13:49:35.425Z,15.65
2022-11-16T13:52:22.012Z,21.27
2022-11-16T13:54:53.892Z,21.08
2022-11-16T13:57:35.061Z,20.85
2022-11-16T14:00:01.572Z,22.55
2022-11-16T14:02:34.361Z,20.90
2022-11-16T14:05:15.965Z,23.27
2022-11-16T14:07:46.288Z,24.60
2022-11-16T14:10:33.264Z,21.52
2022-11-16T14:13:01.378Z,19.98
2022-11-16T14:15:36.291Z,19.98
2022-11-16T14:18:34.037Z,18.45
2022-11-16T14:21:14.505Z,24.17
2022-11-16T14:24:15.685Z,24.70
2022-11-16T14:27:01.176Z,22.40
2022-11-16T14:29:55.867Z,32.20
2022-11-16T14:32:27.328Z,26.25
2022-11-16T14:34:56.657Z,21.20
2022-11-16T14:37:24.308Z,22.63
2022-11-16T14:39:52.363Z,21.85
2022-11-16T14:42:34.540Z,23.80
2022-11-16T14:45:22.460Z,27.27
2022-11-16T14:47:49.676Z,16.58
2022-11-16T14:50:23.724Z,13.65
2022-11-16T14:52:54.908Z,29.02
2022-11-16T14:55:24.587Z,25.75
2022-11-16T14:58:13.975Z,21.48
2022-11-16T15:00:42.321Z,18.27
2022-11-16T15:03:11.924Z,26.98
2022-11-16T15:05:39.055Z,28.38
2022-11-16T15:08:17.268Z,20.45
2022-11-16T15:10:51.045Z,18.52
2022-11-16T15:13:20.852Z,15.25
2022-11-16T15:15:47.580Z,16.67
2022-11-16T15:18:18.703Z,21.67
2022-11-16T15:20:50.688Z,26.65
2022-11-16T15:23:19.682Z,13.60
2022-11-16T15:25:53.137Z,14.50
2022-11-16T15:28:28.544Z,17.48
2022-11-16T15:30:58.723Z,19.48
2022-11-16T15:33:39.300Z,12.63
2022-11-16T15:36:30.507Z,16.60
2022-11-16T15:38:58.620Z,17.63
2022-11-16T15:41:28.129Z,19.20
2022-11-16T15:44:13.529Z,14.63
2022-11-16T15:46:44.575Z,14.43
2022-11-16T15:49:35.165Z,10.68
2022-11-16T15:52:01.981Z,18.45
2022-11-16T15:54:31.235Z,16.35
2022-11-16T15:57:10.860Z,18.15
2022-11-16T15:59:37.676Z,12.57
2022-11-16T16:02:05.142Z,13.00
2022-11-16T16:04:31.805Z,14.13
2022-11-16T16:07:00.500Z,18.95
2022-11-16T16:09:36.695Z,16.48
2022-11-16T16:12:21.524Z,11.10
2022-11-16T16:14:49.731Z,14.07
2022-11-16T16:17:25.531Z,14.23
2022-11-16T16:20:04.386Z,6.50
2022-11-16T16:22:35.840Z,11.75
2022-11-16T16:25:06.638Z,5.82
2022-11-16T16:27:39.439Z,11.27
2022-11-16T16:30:07.249Z,12.32
2022-11-16T16:32:36.971Z,11.75
2022-11-16T16:35:08.728Z,14.95
2022-11-16T16:37:35.982Z,6.68
2022-11-16T16:40:03.000Z,7.95
2022-11-16T16:42:29.583Z,8.70
2022-11-16T16:44:59.508Z,15.35
2022-11-16T16:47:26.331Z,7.60
2022-11-16T16:49:53.199Z,8.73
2022-11-16T16:52:19.783Z,6.95
2022-11-16T16:54:46.676Z,8.75
2022-11-16T16:57:15.803Z,9.30
2022-11-16T16:59:45.399Z,6.40
2022-11-16T17:02:13.052Z,7.53
2022-11-16T17:04:41.474Z,9.73
2022-11-16T17:07:08.054Z,8.30
2022-11-16T17:09:34.946Z,7.35
2022-11-16T17:12:01.688Z,6.88
2022-11-16T17:14:28.272Z,5.13
2022-11-16T17:16:55.022Z,8.02
2022-11-16T17:19:22.749Z,6.40
2022-11-16T17:21:51.442Z,7.25
2022-11-16T17:24:18.025Z,6.03
2022-11-16T17:26:48.124Z,4.63
2022-11-16T17:29:15.375Z,6.63
2022-11-16T17:31:45.001Z,6.97
2022-11-16T17:34:13.823Z,6.22
2022-11-16T17:36:41.863Z,8.25
2022-11-16T17:39:08.566Z,7.72
2022-11-16T17:41:35.311Z,7.03
2022-11-16T17:44:02.120Z,8.73
2022-11-16T17:46:29.046Z,6.50
2022-11-16T17:48:55.963Z,9.13
2022-11-16T17:51:24.920Z,4.90
2022-11-16T17:53:52.196Z,7.50
2022-11-16T17:56:23.606Z,5.57
2022-11-16T17:58:51.504Z,9.05
2022-11-16T18:01:20.982Z,7.03
2022-11-16T18:03:47.799Z,9.60
2022-11-16T18:06:17.062Z,6.70
2022-11-16T18:08:44.393Z,10.98
2022-11-16T18:11:14.140Z,4.50
2022-11-16T18:13:41.205Z,6.20
2022-11-16T18:16:19.307Z,3.38
2022-11-16T18:18:47.597Z,9.55
2022-11-16T18:21:20.425Z,6.13
2022-11-16T18:23:47.855Z,8.82
2022-11-16T18:26:16.784Z,4.10
2022-11-16T18:28:47.245Z,10.45
2022-11-16T18:31:16.391Z,6.90
2022-11-16T18:33:43.822Z,4.18
2022-11-16T18:36:12.002Z,3.22
2022-11-16T18:38:39.180Z,5.20
2022-11-16T18:41:11.938Z,3.25
2022-11-16T18:43:55.085Z,4.93
2022-11-16T18:46:32.870Z,2.95
2022-11-16T18:48:59.977Z,6.30
2022-11-16T18:51:27.469Z,4.68
2022-11-16T18:53:54.710Z,4.85
2022-11-16T18:56:21.768Z,5.65
2022-11-16T18:58:51.410Z,5.03
2022-11-16T19:01:21.707Z,10.23
2022-11-16T19:03:48.416Z,8.90
2022-11-16T19:06:16.998Z,9.48
2022-11-16T19:08:44.064Z,6.03
2022-11-16T19:11:13.065Z,7.70
2022-11-16T19:13:40.867Z,5.63
2022-11-16T19:16:08.881Z,6.13
2022-11-16T19:18:36.505Z,4.78
2022-11-16T19:21:18.514Z,5.78
2022-11-16T19:23:50.965Z,10.68
2022-11-16T19:26:19.401Z,3.08
2022-11-16T19:28:47.944Z,8.45
2022-11-16T19:31:29.166Z,6.72
2022-11-16T19:34:06.658Z,10.57
2022-11-16T19:36:35.703Z,12.25
2022-11-16T19:39:02.716Z,4.30
2022-11-16T19:41:30.394Z,8.15
2022-11-16T19:44:00.288Z,11.38
2022-11-16T19:46:30.880Z,5.18
2022-11-16T19:48:58.769Z,5.85
2022-11-16T19:51:28.213Z,5.90
2022-11-16T19:53:55.705Z,8.02
2022-11-16T19:56:23.756Z,2.05
2022-11-16T19:58:51.395Z,5.55
2022-11-16T20:01:20.500Z,12.40
2022-11-16T20:03:49.049Z,7.18
2022-11-16T20:06:17.908Z,5.60
2022-11-16T20:08:48.448Z,6.22
2022-11-16T20:11:20.627Z,3.17
2022-11-16T20:13:55.235Z,4.03
2022-11-16T20:16:23.942Z,4.15
2022-11-16T20:18:51.954Z,2.38
2022-11-16T20:21:33.173Z,3.80
2022-11-16T20:24:06.082Z,3.13
2022-11-16T20:26:40.479Z,6.07
2022-11-16T20:29:07.135Z,4.65
2022-11-16T20:31:34.413Z,2.58
2022-11-16T20:34:05.468Z,11.30
2022-11-16T20:36:33.478Z,5.00
2022-11-16T20:39:00.975Z,4.30
2022-11-16T20:41:32.287Z,4.07
2022-11-16T20:44:00.779Z,2.47
2022-11-16T20:46:33.351Z,5.35
2022-11-16T20:49:02.017Z,3.80
2022-11-16T20:51:30.018Z,5.55
2022-11-16T20:53:57.113Z,2.15
2022-11-16T20:56:23.923Z,3.15
2022-11-16T20:58:50.986Z,2.10
2022-11-16T21:01:20.177Z,0.55
2022-11-16T21:03:46.929Z,1.30
2022-11-16T21:06:14.895Z,1.75
2022-11-16T21:08:41.782Z,2.17
2022-11-16T21:11:13.026Z,2.72
2022-11-16T21:13:59.074Z,1.35
2022-11-16T21:16:25.984Z,2.42
2022-11-16T21:18:54.562Z,1.90
2022-11-16T21:21:23.143Z,6.40
2022-11-16T21:23:53.576Z,1.85
2022-11-16T21:26:22.997Z,3.72
2022-11-16T21:28:49.626Z,1.55
2022-11-16T21:31:20.021Z,5.18
2022-11-16T21:33:49.653Z,1.13
2022-11-16T21:36:19.750Z,4.20
2022-11-16T21:38:47.639Z,3.10
2022-11-16T21:41:15.751Z,1.48
2022-11-16T21:43:42.890Z,2.88
2022-11-16T21:46:17.426Z,3.15
2022-11-16T21:48:44.492Z,2.55
2022-11-16T21:51:18.834Z,2.13
2022-11-16T21:53:46.271Z,3.53
2022-11-16T21:56:21.829Z,0.77
2022-11-16T21:58:50.477Z,0.90
2022-11-16T22:01:17.359Z,2.63
2022-11-16T22:03:44.777Z,2.25
2022-11-16T22:06:32.959Z,3.60
2022-11-16T22:09:00.186Z,5.47
2022-11-16T22:11:26.937Z,1.02
2022-11-16T22:13:53.861Z,1.83
2022-11-16T22:16:22.979Z,1.00
2022-11-16T22:18:50.045Z,1.75
2022-11-16T22:21:16.654Z,1.55
2022-11-16T22:23:43.275Z,1.35
2022-11-16T22:26:12.104Z,1.20
2022-11-16T22:28:39.531Z,4.35
2022-11-16T22:31:09.292Z,4.55
2022-11-16T22:33:36.198Z,0.93
2022-11-16T22:36:03.610Z,2.75
2022-11-16T22:38:30.543Z,0.88
2022-11-16T22:40:58.017Z,1.80
2022-11-16T22:43:27.236Z,1.17
2022-11-16T22:46:01.974Z,2.35
2022-11-16T22:48:30.702Z,1.92
2022-11-16T22:51:10.321Z,0.85
2022-11-16T22:53:37.197Z,4.70
2022-11-16T22:56:08.567Z,2.22
2022-11-16T22:58:36.993Z,2.58
2022-11-16T23:01:05.350Z,1.08
2022-11-16T23:03:32.269Z,2.25
2022-11-16T23:05:59.618Z,2.25
2022-11-16T23:08:27.395Z,1.52
2022-11-16T23:11:19.638Z,1.02
2022-11-16T23:14:05.023Z,5.63
2022-11-16T23:16:31.866Z,0.60
2022-11-16T23:18:58.971Z,5.40
2022-11-16T23:21:44.445Z,1.50
2022-11-16T23:24:33.984Z,2.45
2022-11-16T23:27:22.788Z,1.08
2022-11-16T23:29:49.642Z,1.00
2022-11-16T23:32:16.296Z,1.13
2022-11-16T23:34:42.843Z,1.52
2022-11-16T23:37:10.244Z,0.55
2022-11-16T23:39:36.965Z,0.10
2022-11-16T23:42:22.308Z,2.35
2022-11-16T23:44:48.940Z,2.55
2022-11-16T23:47:15.522Z,0.50
2022-11-16T23:49:42.273Z,0.63
2022-11-16T23:52:08.852Z,1.05
2022-11-16T23:54:35.468Z,1.70
2022-11-16T23:57:02.257Z,2.20
2022-11-16T23:59:28.820Z,2.35
